Vista Alegre, Argentina
Current Conditions -  °F | °C
As of 5:00 AM on Thursday 29 Jan 2015 (Local Time) from SAZN Reporting Station
Clear Clear  
Wind Chill: 66°   Ceiling: Unl
Heat Index: 66°   Visibility: 6mi
Dew Point: 46°   Wind: 7mph
Humidity: 49%   Direction: 70°ENE
Pressure: 30.03"   Gusts: NA
Location:  36.05°S, 67.38°W
Report Text: SAZN 290800Z 07006KT CAVOK 19/08 Q1017
Loading
Personal Weather Stations






























Interactive Weather Map New forecast layout! Learn more

10-Day Weather Forecast

Advertisements
Track Severe Weather on mobile